Chester-le-Street, United Kingdom
Current Conditions -  °F | °C
As of 12:20 PM on Friday 28 Nov 2014 (Local Time) from EGNT Reporting Station
Haze Haze  
Wind Chill: 44°   Ceiling: 200
Heat Index: 48°   Visibility: 1.1mi
Dew Point: 48°   Wind: 9mph
Humidity: 100%   Direction: 120°ESE
Pressure: 29.77"   Gusts: NA
Location:  54.86°N, 1.59°W
Report Text: EGNT 281220Z 12008KT 080V140 1800 BR OVC002 09/09 Q1008
Loading
Personal Weather Stations






























Interactive Weather Map New forecast layout! Learn more

10-Day Weather Forecast

Advertisements
Track Severe Weather on mobile